sensor_id;sensor_type;location;lat;lon;timestamp;P1;durP1;ratioP1;P2;durP2;ratioP2
4206;SDS011;2117;47.972;7.830;2023-03-23T00:00:50;4.23;;;1.50;;
4206;SDS011;2117;47.972;7.830;2023-03-23T00:03:16;3.87;;;2.03;;
4206;SDS011;2117;47.972;7.830;2023-03-23T00:05:42;4.50;;;1.90;;
4206;SDS011;2117;47.972;7.830;2023-03-23T00:08:14;2.30;;;1.30;;
4206;SDS011;2117;47.972;7.830;2023-03-23T00:10:47;3.80;;;1.50;;
4206;SDS011;2117;47.972;7.830;2023-03-23T00:13:17;7.17;;;1.80;;
4206;SDS011;2117;47.972;7.830;2023-03-23T00:15:45;4.57;;;1.80;;
4206;SDS011;2117;47.972;7.830;2023-03-23T00:18:13;3.80;;;1.40;;
4206;SDS011;2117;47.972;7.830;2023-03-23T00:20:46;2.23;;;1.57;;
4206;SDS011;2117;47.972;7.830;2023-03-23T00:23:20;2.13;;;1.50;;
4206;SDS011;2117;47.972;7.830;2023-03-23T00:25:48;2.60;;;1.53;;
4206;SDS011;2117;47.972;7.830;2023-03-23T00:28:17;2.70;;;1.80;;
4206;SDS011;2117;47.972;7.830;2023-03-23T00:30:49;3.60;;;1.63;;
4206;SDS011;2117;47.972;7.830;2023-03-23T00:33:22;3.27;;;1.67;;
4206;SDS011;2117;47.972;7.830;2023-03-23T00:35:52;3.70;;;2.03;;
4206;SDS011;2117;47.972;7.830;2023-03-23T00:38:19;2.37;;;1.50;;
4206;SDS011;2117;47.972;7.830;2023-03-23T00:40:46;2.43;;;1.30;;
4206;SDS011;2117;47.972;7.830;2023-03-23T00:43:13;4.20;;;2.00;;
4206;SDS011;2117;47.972;7.830;2023-03-23T00:45:40;5.10;;;1.90;;
4206;SDS011;2117;47.972;7.830;2023-03-23T00:48:05;4.23;;;1.90;;
4206;SDS011;2117;47.972;7.830;2023-03-23T00:50:31;4.57;;;1.67;;
4206;SDS011;2117;47.972;7.830;2023-03-23T00:52:57;2.90;;;1.30;;
4206;SDS011;2117;47.972;7.830;2023-03-23T00:55:23;2.93;;;1.73;;
4206;SDS011;2117;47.972;7.830;2023-03-23T00:57:50;4.27;;;1.70;;
4206;SDS011;2117;47.972;7.830;2023-03-23T01:00:16;3.43;;;1.47;;
4206;SDS011;2117;47.972;7.830;2023-03-23T01:02:43;2.13;;;1.30;;
4206;SDS011;2117;47.972;7.830;2023-03-23T01:05:09;3.10;;;1.50;;
4206;SDS011;2117;47.972;7.830;2023-03-23T01:07:36;2.17;;;1.40;;
4206;SDS011;2117;47.972;7.830;2023-03-23T01:10:02;2.73;;;1.80;;
4206;SDS011;2117;47.972;7.830;2023-03-23T01:12:28;3.00;;;1.67;;
4206;SDS011;2117;47.972;7.830;2023-03-23T01:14:53;3.23;;;1.10;;
4206;SDS011;2117;47.972;7.830;2023-03-23T01:17:19;5.30;;;1.80;;
4206;SDS011;2117;47.972;7.830;2023-03-23T01:19:46;2.27;;;1.70;;
4206;SDS011;2117;47.972;7.830;2023-03-23T01:22:11;4.50;;;1.57;;
4206;SDS011;2117;47.972;7.830;2023-03-23T01:24:37;2.73;;;1.63;;
4206;SDS011;2117;47.972;7.830;2023-03-23T01:27:03;4.37;;;1.47;;
4206;SDS011;2117;47.972;7.830;2023-03-23T01:29:32;1.80;;;1.40;;
4206;SDS011;2117;47.972;7.830;2023-03-23T01:31:58;3.30;;;1.73;;
4206;SDS011;2117;47.972;7.830;2023-03-23T01:34:24;6.20;;;1.87;;
4206;SDS011;2117;47.972;7.830;2023-03-23T01:36:50;2.40;;;1.13;;
4206;SDS011;2117;47.972;7.830;2023-03-23T01:39:15;2.87;;;1.60;;
4206;SDS011;2117;47.972;7.830;2023-03-23T01:41:41;2.70;;;1.80;;
4206;SDS011;2117;47.972;7.830;2023-03-23T01:46:55;3.00;;;1.50;;
4206;SDS011;2117;47.972;7.830;2023-03-23T01:49:21;2.13;;;1.20;;
4206;SDS011;2117;47.972;7.830;2023-03-23T01:51:53;3.40;;;1.67;;
4206;SDS011;2117;47.972;7.830;2023-03-23T01:54:22;2.00;;;1.27;;
4206;SDS011;2117;47.972;7.830;2023-03-23T01:57:07;3.57;;;1.30;;
4206;SDS011;2117;47.972;7.830;2023-03-23T01:59:38;2.10;;;1.30;;
4206;SDS011;2117;47.972;7.830;2023-03-23T02:02:07;2.57;;;1.60;;
4206;SDS011;2117;47.972;7.830;2023-03-23T02:04:35;3.93;;;1.47;;
4206;SDS011;2117;47.972;7.830;2023-03-23T02:07:02;2.30;;;1.50;;
4206;SDS011;2117;47.972;7.830;2023-03-23T02:09:28;1.90;;;1.33;;
4206;SDS011;2117;47.972;7.830;2023-03-23T02:11:54;2.23;;;1.43;;
4206;SDS011;2117;47.972;7.830;2023-03-23T02:14:21;1.70;;;1.20;;
4206;SDS011;2117;47.972;7.830;2023-03-23T02:17:23;2.10;;;1.20;;
4206;SDS011;2117;47.972;7.830;2023-03-23T02:20:10;2.50;;;1.43;;
4206;SDS011;2117;47.972;7.830;2023-03-23T02:22:49;8.70;;;1.53;;
4206;SDS011;2117;47.972;7.830;2023-03-23T02:25:59;4.27;;;1.47;;
4206;SDS011;2117;47.972;7.830;2023-03-23T02:28:42;3.70;;;1.47;;
4206;SDS011;2117;47.972;7.830;2023-03-23T02:32:16;2.20;;;1.30;;
4206;SDS011;2117;47.972;7.830;2023-03-23T02:37:09;2.40;;;1.40;;
4206;SDS011;2117;47.972;7.830;2023-03-23T02:39:45;2.10;;;1.43;;
4206;SDS011;2117;47.972;7.830;2023-03-23T02:42:16;2.03;;;1.50;;
4206;SDS011;2117;47.972;7.830;2023-03-23T02:44:46;2.70;;;1.70;;
4206;SDS011;2117;47.972;7.830;2023-03-23T02:47:15;3.60;;;1.70;;
4206;SDS011;2117;47.972;7.830;2023-03-23T02:49:45;2.13;;;1.27;;
4206;SDS011;2117;47.972;7.830;2023-03-23T02:52:15;2.57;;;1.57;;
4206;SDS011;2117;47.972;7.830;2023-03-23T02:54:46;3.93;;;1.47;;
4206;SDS011;2117;47.972;7.830;2023-03-23T02:57:14;3.73;;;1.70;;
4206;SDS011;2117;47.972;7.830;2023-03-23T02:59:41;2.47;;;1.07;;
4206;SDS011;2117;47.972;7.830;2023-03-23T03:02:07;2.90;;;1.40;;
4206;SDS011;2117;47.972;7.830;2023-03-23T03:04:38;2.20;;;1.20;;
4206;SDS011;2117;47.972;7.830;2023-03-23T03:12:13;3.90;;;1.27;;
4206;SDS011;2117;47.972;7.830;2023-03-23T03:15:04;3.47;;;1.37;;
4206;SDS011;2117;47.972;7.830;2023-03-23T03:17:32;3.53;;;1.43;;
4206;SDS011;2117;47.972;7.830;2023-03-23T03:20:04;2.13;;;1.40;;
4206;SDS011;2117;47.972;7.830;2023-03-23T03:22:35;2.30;;;1.10;;
4206;SDS011;2117;47.972;7.830;2023-03-23T03:25:07;4.17;;;1.53;;
4206;SDS011;2117;47.972;7.830;2023-03-23T03:27:33;3.20;;;1.60;;
4206;SDS011;2117;47.972;7.830;2023-03-23T03:30:00;2.30;;;1.57;;
4206;SDS011;2117;47.972;7.830;2023-03-23T03:32:34;2.50;;;1.20;;
4206;SDS011;2117;47.972;7.830;2023-03-23T03:35:06;4.17;;;1.50;;
4206;SDS011;2117;47.972;7.830;2023-03-23T03:37:35;3.53;;;1.23;;
4206;SDS011;2117;47.972;7.830;2023-03-23T03:40:03;2.57;;;1.60;;
4206;SDS011;2117;47.972;7.830;2023-03-23T03:42:35;2.63;;;1.60;;
4206;SDS011;2117;47.972;7.830;2023-03-23T03:45:05;4.30;;;1.60;;
4206;SDS011;2117;47.972;7.830;2023-03-23T03:47:33;1.67;;;1.17;;
4206;SDS011;2117;47.972;7.830;2023-03-23T03:49:58;2.30;;;1.23;;
4206;SDS011;2117;47.972;7.830;2023-03-23T03:52:24;2.63;;;1.20;;
4206;SDS011;2117;47.972;7.830;2023-03-23T03:54:50;7.83;;;1.50;;
4206;SDS011;2117;47.972;7.830;2023-03-23T03:57:16;3.87;;;1.30;;
4206;SDS011;2117;47.972;7.830;2023-03-23T03:59:42;2.47;;;1.47;;
4206;SDS011;2117;47.972;7.830;2023-03-23T04:02:08;3.97;;;1.40;;
4206;SDS011;2117;47.972;7.830;2023-03-23T04:04:34;2.90;;;1.50;;
4206;SDS011;2117;47.972;7.830;2023-03-23T04:07:00;2.53;;;1.47;;
4206;SDS011;2117;47.972;7.830;2023-03-23T04:09:27;4.70;;;1.43;;
4206;SDS011;2117;47.972;7.830;2023-03-23T04:11:53;4.83;;;1.40;;
4206;SDS011;2117;47.972;7.830;2023-03-23T04:14:18;3.20;;;1.80;;
4206;SDS011;2117;47.972;7.830;2023-03-23T04:16:44;3.43;;;1.73;;
4206;SDS011;2117;47.972;7.830;2023-03-23T04:19:10;2.63;;;1.60;;
4206;SDS011;2117;47.972;7.830;2023-03-23T04:21:37;4.23;;;1.60;;
4206;SDS011;2117;47.972;7.830;2023-03-23T04:24:03;2.80;;;1.43;;
4206;SDS011;2117;47.972;7.830;2023-03-23T04:26:29;2.40;;;1.40;;
4206;SDS011;2117;47.972;7.830;2023-03-23T04:28:55;3.20;;;1.77;;
4206;SDS011;2117;47.972;7.830;2023-03-23T04:31:21;2.47;;;1.57;;
4206;SDS011;2117;47.972;7.830;2023-03-23T04:33:49;3.27;;;1.50;;
4206;SDS011;2117;47.972;7.830;2023-03-23T04:36:17;2.60;;;1.50;;
4206;SDS011;2117;47.972;7.830;2023-03-23T04:38:43;11.33;;;1.47;;
4206;SDS011;2117;47.972;7.830;2023-03-23T04:41:09;4.07;;;1.67;;
4206;SDS011;2117;47.972;7.830;2023-03-23T04:43:34;3.10;;;2.00;;
4206;SDS011;2117;47.972;7.830;2023-03-23T04:46:06;3.40;;;1.60;;
4206;SDS011;2117;47.972;7.830;2023-03-23T04:48:36;3.97;;;2.33;;
4206;SDS011;2117;47.972;7.830;2023-03-23T04:51:04;2.40;;;1.70;;
4206;SDS011;2117;47.972;7.830;2023-03-23T04:53:30;2.53;;;1.67;;
4206;SDS011;2117;47.972;7.830;2023-03-23T04:55:56;2.17;;;1.67;;
4206;SDS011;2117;47.972;7.830;2023-03-23T04:58:25;3.50;;;1.80;;
4206;SDS011;2117;47.972;7.830;2023-03-23T05:00:53;4.37;;;1.43;;
4206;SDS011;2117;47.972;7.830;2023-03-23T05:03:19;3.63;;;2.03;;
4206;SDS011;2117;47.972;7.830;2023-03-23T05:05:45;2.73;;;1.80;;
4206;SDS011;2117;47.972;7.830;2023-03-23T05:08:18;3.10;;;1.60;;
4206;SDS011;2117;47.972;7.830;2023-03-23T05:10:51;3.40;;;1.97;;
4206;SDS011;2117;47.972;7.830;2023-03-23T05:13:18;2.83;;;1.90;;
4206;SDS011;2117;47.972;7.830;2023-03-23T05:15:44;3.80;;;1.90;;
4206;SDS011;2117;47.972;7.830;2023-03-23T05:18:10;2.50;;;1.90;;
4206;SDS011;2117;47.972;7.830;2023-03-23T05:20:36;3.70;;;1.97;;
4206;SDS011;2117;47.972;7.830;2023-03-23T05:23:02;4.03;;;1.67;;
4206;SDS011;2117;47.972;7.830;2023-03-23T05:25:28;3.03;;;1.70;;
4206;SDS011;2117;47.972;7.830;2023-03-23T05:27:53;2.83;;;1.93;;
4206;SDS011;2117;47.972;7.830;2023-03-23T05:30:19;3.00;;;1.50;;
4206;SDS011;2117;47.972;7.830;2023-03-23T05:32:46;4.13;;;2.00;;
4206;SDS011;2117;47.972;7.830;2023-03-23T05:35:15;3.43;;;2.00;;
4206;SDS011;2117;47.972;7.830;2023-03-23T05:37:42;2.80;;;1.90;;
4206;SDS011;2117;47.972;7.830;2023-03-23T05:40:08;2.97;;;2.07;;
4206;SDS011;2117;47.972;7.830;2023-03-23T05:42:36;3.40;;;1.60;;
4206;SDS011;2117;47.972;7.830;2023-03-23T05:45:03;3.73;;;1.73;;
4206;SDS011;2117;47.972;7.830;2023-03-23T05:47:29;3.33;;;1.93;;
4206;SDS011;2117;47.972;7.830;2023-03-23T05:49:55;8.40;;;2.23;;
4206;SDS011;2117;47.972;7.830;2023-03-23T05:52:21;3.53;;;2.10;;
4206;SDS011;2117;47.972;7.830;2023-03-23T05:54:48;4.10;;;2.00;;
4206;SDS011;2117;47.972;7.830;2023-03-23T05:57:14;4.97;;;2.20;;
4206;SDS011;2117;47.972;7.830;2023-03-23T05:59:40;3.00;;;1.80;;
4206;SDS011;2117;47.972;7.830;2023-03-23T06:02:05;3.40;;;2.03;;
4206;SDS011;2117;47.972;7.830;2023-03-23T06:04:31;3.23;;;2.07;;
4206;SDS011;2117;47.972;7.830;2023-03-23T06:06:59;3.43;;;2.07;;
4206;SDS011;2117;47.972;7.830;2023-03-23T06:09:25;3.10;;;2.00;;
4206;SDS011;2117;47.972;7.830;2023-03-23T06:11:51;7.20;;;2.33;;
4206;SDS011;2117;47.972;7.830;2023-03-23T06:14:17;3.07;;;2.27;;
4206;SDS011;2117;47.972;7.830;2023-03-23T06:16:42;7.20;;;4.80;;
4206;SDS011;2117;47.972;7.830;2023-03-23T06:19:08;3.80;;;2.50;;
4206;SDS011;2117;47.972;7.830;2023-03-23T06:21:34;3.50;;;2.30;;
4206;SDS011;2117;47.972;7.830;2023-03-23T06:24:00;4.20;;;2.10;;
4206;SDS011;2117;47.972;7.830;2023-03-23T06:26:27;5.27;;;2.13;;
4206;SDS011;2117;47.972;7.830;2023-03-23T06:28:56;4.07;;;2.50;;
4206;SDS011;2117;47.972;7.830;2023-03-23T06:31:22;7.70;;;2.47;;
4206;SDS011;2117;47.972;7.830;2023-03-23T06:33:49;5.17;;;2.07;;
4206;SDS011;2117;47.972;7.830;2023-03-23T06:36:15;4.17;;;2.17;;
4206;SDS011;2117;47.972;7.830;2023-03-23T06:38:41;2.77;;;1.87;;
4206;SDS011;2117;47.972;7.830;2023-03-23T06:41:07;4.00;;;2.30;;
4206;SDS011;2117;47.972;7.830;2023-03-23T06:43:33;3.53;;;1.83;;
4206;SDS011;2117;47.972;7.830;2023-03-23T06:46:01;4.13;;;1.90;;
4206;SDS011;2117;47.972;7.830;2023-03-23T06:48:26;3.67;;;2.50;;
4206;SDS011;2117;47.972;7.830;2023-03-23T06:50:52;4.47;;;2.03;;
4206;SDS011;2117;47.972;7.830;2023-03-23T06:53:18;4.60;;;2.40;;
4206;SDS011;2117;47.972;7.830;2023-03-23T06:55:45;3.37;;;2.27;;
4206;SDS011;2117;47.972;7.830;2023-03-23T06:58:11;5.87;;;2.90;;
4206;SDS011;2117;47.972;7.830;2023-03-23T07:00:37;4.57;;;2.53;;
4206;SDS011;2117;47.972;7.830;2023-03-23T07:03:03;5.23;;;2.53;;
4206;SDS011;2117;47.972;7.830;2023-03-23T07:05:29;3.50;;;2.20;;
4206;SDS011;2117;47.972;7.830;2023-03-23T07:07:55;3.50;;;2.10;;
4206;SDS011;2117;47.972;7.830;2023-03-23T07:10:20;6.20;;;2.30;;
4206;SDS011;2117;47.972;7.830;2023-03-23T07:12:46;5.33;;;2.90;;
4206;SDS011;2117;47.972;7.830;2023-03-23T07:15:12;3.17;;;2.10;;
4206;SDS011;2117;47.972;7.830;2023-03-23T07:17:38;4.80;;;1.90;;
4206;SDS011;2117;47.972;7.830;2023-03-23T07:20:04;5.57;;;2.20;;
4206;SDS011;2117;47.972;7.830;2023-03-23T07:22:31;4.07;;;2.30;;
4206;SDS011;2117;47.972;7.830;2023-03-23T07:24:57;7.37;;;2.30;;
4206;SDS011;2117;47.972;7.830;2023-03-23T07:27:23;3.60;;;2.13;;
4206;SDS011;2117;47.972;7.830;2023-03-23T07:29:49;3.70;;;2.23;;
4206;SDS011;2117;47.972;7.830;2023-03-23T07:32:15;3.80;;;2.03;;
4206;SDS011;2117;47.972;7.830;2023-03-23T07:34:41;3.53;;;2.33;;
4206;SDS011;2117;47.972;7.830;2023-03-23T07:37:07;7.20;;;2.33;;
4206;SDS011;2117;47.972;7.830;2023-03-23T07:39:33;3.47;;;2.20;;
4206;SDS011;2117;47.972;7.830;2023-03-23T07:41:59;3.03;;;2.23;;
4206;SDS011;2117;47.972;7.830;2023-03-23T07:44:25;7.33;;;2.10;;
4206;SDS011;2117;47.972;7.830;2023-03-23T07:46:51;3.60;;;1.97;;
4206;SDS011;2117;47.972;7.830;2023-03-23T07:49:17;3.93;;;1.73;;
4206;SDS011;2117;47.972;7.830;2023-03-23T07:51:43;4.83;;;2.70;;
4206;SDS011;2117;47.972;7.830;2023-03-23T07:54:10;6.23;;;2.27;;
4206;SDS011;2117;47.972;7.830;2023-03-23T07:56:36;4.20;;;3.50;;
4206;SDS011;2117;47.972;7.830;2023-03-23T07:59:05;3.93;;;2.60;;
4206;SDS011;2117;47.972;7.830;2023-03-23T08:01:31;3.90;;;2.50;;
4206;SDS011;2117;47.972;7.830;2023-03-23T08:03:57;4.80;;;2.70;;
4206;SDS011;2117;47.972;7.830;2023-03-23T08:06:24;3.73;;;2.53;;
4206;SDS011;2117;47.972;7.830;2023-03-23T08:08:50;7.90;;;2.57;;
4206;SDS011;2117;47.972;7.830;2023-03-23T08:11:16;3.70;;;2.60;;
4206;SDS011;2117;47.972;7.830;2023-03-23T08:13:43;6.90;;;2.57;;
4206;SDS011;2117;47.972;7.830;2023-03-23T08:16:09;3.87;;;2.20;;
4206;SDS011;2117;47.972;7.830;2023-03-23T08:18:35;3.70;;;2.23;;
4206;SDS011;2117;47.972;7.830;2023-03-23T08:21:03;4.70;;;2.50;;
4206;SDS011;2117;47.972;7.830;2023-03-23T08:23:30;7.27;;;3.10;;
4206;SDS011;2117;47.972;7.830;2023-03-23T08:25:59;4.80;;;2.63;;
4206;SDS011;2117;47.972;7.830;2023-03-23T08:28:25;4.53;;;2.53;;
4206;SDS011;2117;47.972;7.830;2023-03-23T08:30:51;4.50;;;2.80;;
4206;SDS011;2117;47.972;7.830;2023-03-23T08:33:16;3.70;;;2.20;;
4206;SDS011;2117;47.972;7.830;2023-03-23T08:35:42;5.23;;;2.70;;
4206;SDS011;2117;47.972;7.830;2023-03-23T08:38:09;4.00;;;2.60;;
4206;SDS011;2117;47.972;7.830;2023-03-23T08:40:38;4.80;;;2.90;;
4206;SDS011;2117;47.972;7.830;2023-03-23T08:43:05;5.40;;;3.20;;
4206;SDS011;2117;47.972;7.830;2023-03-23T08:45:31;5.43;;;2.53;;
4206;SDS011;2117;47.972;7.830;2023-03-23T08:47:56;5.50;;;2.90;;
4206;SDS011;2117;47.972;7.830;2023-03-23T08:50:25;8.53;;;3.00;;
4206;SDS011;2117;47.972;7.830;2023-03-23T08:52:53;5.23;;;3.23;;
4206;SDS011;2117;47.972;7.830;2023-03-23T08:55:19;3.80;;;2.83;;
4206;SDS011;2117;47.972;7.830;2023-03-23T08:57:46;4.10;;;2.87;;
4206;SDS011;2117;47.972;7.830;2023-03-23T09:00:13;4.53;;;2.97;;
4206;SDS011;2117;47.972;7.830;2023-03-23T09:02:48;4.23;;;3.00;;
4206;SDS011;2117;47.972;7.830;2023-03-23T09:05:15;6.17;;;2.90;;
4206;SDS011;2117;47.972;7.830;2023-03-23T09:07:43;6.03;;;2.80;;
4206;SDS011;2117;47.972;7.830;2023-03-23T09:10:11;4.07;;;3.10;;
4206;SDS011;2117;47.972;7.830;2023-03-23T09:12:38;5.00;;;2.90;;
4206;SDS011;2117;47.972;7.830;2023-03-23T09:15:06;5.30;;;3.50;;
4206;SDS011;2117;47.972;7.830;2023-03-23T09:17:34;4.70;;;2.93;;
4206;SDS011;2117;47.972;7.830;2023-03-23T09:20:01;3.90;;;2.40;;
4206;SDS011;2117;47.972;7.830;2023-03-23T09:22:29;5.53;;;3.17;;
4206;SDS011;2117;47.972;7.830;2023-03-23T09:24:54;6.43;;;2.23;;
4206;SDS011;2117;47.972;7.830;2023-03-23T09:27:20;3.97;;;1.97;;
4206;SDS011;2117;47.972;7.830;2023-03-23T09:29:45;2.67;;;1.87;;
4206;SDS011;2117;47.972;7.830;2023-03-23T09:32:13;4.93;;;2.20;;
4206;SDS011;2117;47.972;7.830;2023-03-23T09:34:39;2.90;;;2.10;;
4206;SDS011;2117;47.972;7.830;2023-03-23T09:37:06;3.73;;;2.17;;
4206;SDS011;2117;47.972;7.830;2023-03-23T09:39:31;3.10;;;2.00;;
4206;SDS011;2117;47.972;7.830;2023-03-23T09:42:17;2.87;;;1.60;;
4206;SDS011;2117;47.972;7.830;2023-03-23T09:50:44;3.40;;;1.70;;
4206;SDS011;2117;47.972;7.830;2023-03-23T09:53:21;4.90;;;1.67;;
4206;SDS011;2117;47.972;7.830;2023-03-23T09:55:49;2.40;;;1.50;;
4206;SDS011;2117;47.972;7.830;2023-03-23T10:01:06;2.33;;;1.53;;
4206;SDS011;2117;47.972;7.830;2023-03-23T10:03:40;2.93;;;1.40;;
4206;SDS011;2117;47.972;7.830;2023-03-23T10:06:09;4.23;;;1.70;;
4206;SDS011;2117;47.972;7.830;2023-03-23T10:08:47;2.90;;;1.60;;
4206;SDS011;2117;47.972;7.830;2023-03-23T10:13:59;2.63;;;1.50;;
4206;SDS011;2117;47.972;7.830;2023-03-23T10:17:00;3.33;;;1.43;;
4206;SDS011;2117;47.972;7.830;2023-03-23T10:22:26;3.67;;;1.90;;
4206;SDS011;2117;47.972;7.830;2023-03-23T10:27:44;3.37;;;1.97;;
4206;SDS011;2117;47.972;7.830;2023-03-23T10:30:30;3.77;;;1.40;;
4206;SDS011;2117;47.972;7.830;2023-03-23T10:33:08;7.30;;;1.90;;
4206;SDS011;2117;47.972;7.830;2023-03-23T10:35:36;4.37;;;1.90;;
4206;SDS011;2117;47.972;7.830;2023-03-23T10:38:13;2.20;;;1.40;;
4206;SDS011;2117;47.972;7.830;2023-03-23T10:40:48;2.40;;;1.50;;
4206;SDS011;2117;47.972;7.830;2023-03-23T10:43:23;3.33;;;2.10;;
4206;SDS011;2117;47.972;7.830;2023-03-23T10:45:53;3.00;;;1.83;;
4206;SDS011;2117;47.972;7.830;2023-03-23T10:48:28;2.60;;;1.57;;
4206;SDS011;2117;47.972;7.830;2023-03-23T10:50:57;2.43;;;1.43;;
4206;SDS011;2117;47.972;7.830;2023-03-23T10:53:34;3.50;;;1.70;;
4206;SDS011;2117;47.972;7.830;2023-03-23T10:56:02;2.83;;;1.70;;
4206;SDS011;2117;47.972;7.830;2023-03-23T10:58:30;2.03;;;1.43;;
4206;SDS011;2117;47.972;7.830;2023-03-23T11:00:58;3.00;;;1.80;;
4206;SDS011;2117;47.972;7.830;2023-03-23T11:06:01;2.63;;;1.60;;
4206;SDS011;2117;47.972;7.830;2023-03-23T11:08:58;8.57;;;1.97;;
4206;SDS011;2117;47.972;7.830;2023-03-23T11:11:27;2.73;;;1.70;;
4206;SDS011;2117;47.972;7.830;2023-03-23T11:13:59;6.90;;;1.53;;
4206;SDS011;2117;47.972;7.830;2023-03-23T11:16:28;2.77;;;1.77;;
4206;SDS011;2117;47.972;7.830;2023-03-23T11:18:57;5.70;;;1.60;;
4206;SDS011;2117;47.972;7.830;2023-03-23T11:21:37;3.77;;;1.40;;
4206;SDS011;2117;47.972;7.830;2023-03-23T11:24:03;2.73;;;1.70;;
4206;SDS011;2117;47.972;7.830;2023-03-23T11:26:31;4.90;;;1.73;;
4206;SDS011;2117;47.972;7.830;2023-03-23T11:29:06;2.90;;;1.73;;
4206;SDS011;2117;47.972;7.830;2023-03-23T11:31:40;2.93;;;1.53;;
4206;SDS011;2117;47.972;7.830;2023-03-23T11:34:13;2.70;;;1.53;;
4206;SDS011;2117;47.972;7.830;2023-03-23T11:36:49;6.10;;;1.97;;
4206;SDS011;2117;47.972;7.830;2023-03-23T11:39:24;2.53;;;1.60;;
4206;SDS011;2117;47.972;7.830;2023-03-23T11:41:52;3.27;;;1.90;;
4206;SDS011;2117;47.972;7.830;2023-03-23T11:44:20;3.00;;;1.80;;
4206;SDS011;2117;47.972;7.830;2023-03-23T11:47:04;5.63;;;1.80;;
4206;SDS011;2117;47.972;7.830;2023-03-23T11:49:44;2.77;;;1.90;;
4206;SDS011;2117;47.972;7.830;2023-03-23T11:55:07;3.63;;;1.70;;
4206;SDS011;2117;47.972;7.830;2023-03-23T11:57:39;3.37;;;2.10;;
4206;SDS011;2117;47.972;7.830;2023-03-23T12:00:23;2.53;;;1.43;;
4206;SDS011;2117;47.972;7.830;2023-03-23T12:10:58;5.53;;;2.00;;
4206;SDS011;2117;47.972;7.830;2023-03-23T12:27:30;4.23;;;1.70;;
4206;SDS011;2117;47.972;7.830;2023-03-23T12:32:52;3.50;;;1.90;;
4206;SDS011;2117;47.972;7.830;2023-03-23T12:41:05;4.20;;;2.20;;
4206;SDS011;2117;47.972;7.830;2023-03-23T12:44:01;2.20;;;1.70;;
4206;SDS011;2117;47.972;7.830;2023-03-23T12:49:31;4.90;;;2.40;;
4206;SDS011;2117;47.972;7.830;2023-03-23T12:52:26;2.87;;;1.83;;
4206;SDS011;2117;47.972;7.830;2023-03-23T12:54:56;2.97;;;1.70;;
4206;SDS011;2117;47.972;7.830;2023-03-23T12:57:25;4.47;;;2.10;;
4206;SDS011;2117;47.972;7.830;2023-03-23T13:00:03;3.50;;;1.90;;
4206;SDS011;2117;47.972;7.830;2023-03-23T13:02:40;3.50;;;2.00;;
4206;SDS011;2117;47.972;7.830;2023-03-23T13:07:52;3.63;;;2.20;;
4206;SDS011;2117;47.972;7.830;2023-03-23T13:10:33;3.70;;;2.10;;
4206;SDS011;2117;47.972;7.830;2023-03-23T13:13:07;2.40;;;1.70;;
4206;SDS011;2117;47.972;7.830;2023-03-23T13:19:13;3.53;;;2.03;;
4206;SDS011;2117;47.972;7.830;2023-03-23T13:21:30;4.00;;;1.70;;
4206;SDS011;2117;47.972;7.830;2023-03-23T13:24:05;3.87;;;2.00;;
4206;SDS011;2117;47.972;7.830;2023-03-23T13:26:39;4.57;;;1.43;;
4206;SDS011;2117;47.972;7.830;2023-03-23T13:29:14;3.40;;;2.20;;
4206;SDS011;2117;47.972;7.830;2023-03-23T13:31:46;4.20;;;1.70;;
4206;SDS011;2117;47.972;7.830;2023-03-23T13:37:01;2.40;;;1.93;;
4206;SDS011;2117;47.972;7.830;2023-03-23T13:39:35;3.10;;;2.17;;
4206;SDS011;2117;47.972;7.830;2023-03-23T13:42:04;3.60;;;2.17;;
4206;SDS011;2117;47.972;7.830;2023-03-23T14:05:38;2.80;;;1.30;;
4206;SDS011;2117;47.972;7.830;2023-03-23T14:08:35;4.20;;;2.00;;
4206;SDS011;2117;47.972;7.830;2023-03-23T14:11:11;4.63;;;1.90;;
4206;SDS011;2117;47.972;7.830;2023-03-23T14:13:47;3.97;;;1.50;;
4206;SDS011;2117;47.972;7.830;2023-03-23T14:16:22;2.90;;;1.70;;
4206;SDS011;2117;47.972;7.830;2023-03-23T14:18:55;3.47;;;1.50;;
4206;SDS011;2117;47.972;7.830;2023-03-23T14:24:00;4.33;;;1.70;;
4206;SDS011;2117;47.972;7.830;2023-03-23T14:26:27;2.60;;;1.63;;
4206;SDS011;2117;47.972;7.830;2023-03-23T14:28:53;5.40;;;1.83;;
4206;SDS011;2117;47.972;7.830;2023-03-23T14:31:20;2.33;;;1.43;;
4206;SDS011;2117;47.972;7.830;2023-03-23T14:33:48;2.67;;;1.70;;
4206;SDS011;2117;47.972;7.830;2023-03-23T14:36:20;3.40;;;2.30;;
4206;SDS011;2117;47.972;7.830;2023-03-23T14:39:04;2.83;;;1.70;;
4206;SDS011;2117;47.972;7.830;2023-03-23T14:41:37;2.80;;;2.10;;
4206;SDS011;2117;47.972;7.830;2023-03-23T14:44:05;6.37;;;1.87;;
4206;SDS011;2117;47.972;7.830;2023-03-23T14:46:33;4.10;;;1.80;;
4206;SDS011;2117;47.972;7.830;2023-03-23T14:49:01;2.63;;;1.50;;
4206;SDS011;2117;47.972;7.830;2023-03-23T14:51:28;2.53;;;1.77;;
4206;SDS011;2117;47.972;7.830;2023-03-23T14:53:54;5.53;;;1.63;;
4206;SDS011;2117;47.972;7.830;2023-03-23T14:56:20;3.33;;;1.63;;
4206;SDS011;2117;47.972;7.830;2023-03-23T14:58:51;5.23;;;1.67;;
4206;SDS011;2117;47.972;7.830;2023-03-23T15:01:25;3.13;;;2.10;;
4206;SDS011;2117;47.972;7.830;2023-03-23T15:04:07;4.40;;;2.40;;
4206;SDS011;2117;47.972;7.830;2023-03-23T15:07:01;3.27;;;2.03;;
4206;SDS011;2117;47.972;7.830;2023-03-23T15:09:28;5.27;;;2.60;;
4206;SDS011;2117;47.972;7.830;2023-03-23T15:11:56;6.30;;;2.30;;
4206;SDS011;2117;47.972;7.830;2023-03-23T15:14:41;4.23;;;2.60;;
4206;SDS011;2117;47.972;7.830;2023-03-23T15:17:29;3.50;;;1.90;;
4206;SDS011;2117;47.972;7.830;2023-03-23T15:20:07;3.60;;;2.23;;
4206;SDS011;2117;47.972;7.830;2023-03-23T15:22:35;2.63;;;1.60;;
4206;SDS011;2117;47.972;7.830;2023-03-23T15:27:33;3.80;;;2.13;;
4206;SDS011;2117;47.972;7.830;2023-03-23T15:30:00;3.80;;;2.60;;
4206;SDS011;2117;47.972;7.830;2023-03-23T15:32:52;2.90;;;2.20;;
4206;SDS011;2117;47.972;7.830;2023-03-23T15:35:25;6.47;;;2.50;;
4206;SDS011;2117;47.972;7.830;2023-03-23T15:37:52;4.60;;;2.03;;
4206;SDS011;2117;47.972;7.830;2023-03-23T15:40:23;5.33;;;2.40;;
4206;SDS011;2117;47.972;7.830;2023-03-23T15:43:05;3.80;;;2.13;;
4206;SDS011;2117;47.972;7.830;2023-03-23T15:45:50;4.00;;;2.57;;
4206;SDS011;2117;47.972;7.830;2023-03-23T15:48:18;2.30;;;1.50;;
4206;SDS011;2117;47.972;7.830;2023-03-23T15:50:44;2.80;;;1.80;;
4206;SDS011;2117;47.972;7.830;2023-03-23T15:53:18;4.80;;;2.40;;
4206;SDS011;2117;47.972;7.830;2023-03-23T15:55:48;3.30;;;2.10;;
4206;SDS011;2117;47.972;7.830;2023-03-23T15:58:14;2.60;;;1.77;;
4206;SDS011;2117;47.972;7.830;2023-03-23T16:00:40;3.97;;;2.50;;
4206;SDS011;2117;47.972;7.830;2023-03-23T16:03:07;5.43;;;2.43;;
4206;SDS011;2117;47.972;7.830;2023-03-23T16:05:37;7.40;;;1.97;;
4206;SDS011;2117;47.972;7.830;2023-03-23T16:08:03;3.00;;;2.00;;
4206;SDS011;2117;47.972;7.830;2023-03-23T16:10:29;4.93;;;1.70;;
4206;SDS011;2117;47.972;7.830;2023-03-23T16:12:55;4.27;;;2.43;;
4206;SDS011;2117;47.972;7.830;2023-03-23T16:15:20;4.53;;;1.70;;
4206;SDS011;2117;47.972;7.830;2023-03-23T16:17:46;3.23;;;2.07;;
4206;SDS011;2117;47.972;7.830;2023-03-23T16:20:13;4.10;;;2.13;;
4206;SDS011;2117;47.972;7.830;2023-03-23T16:22:40;3.87;;;1.70;;
4206;SDS011;2117;47.972;7.830;2023-03-23T16:25:06;3.23;;;1.93;;
4206;SDS011;2117;47.972;7.830;2023-03-23T16:27:32;3.60;;;1.83;;
4206;SDS011;2117;47.972;7.830;2023-03-23T16:29:58;3.83;;;2.17;;
4206;SDS011;2117;47.972;7.830;2023-03-23T16:32:24;3.63;;;2.27;;
4206;SDS011;2117;47.972;7.830;2023-03-23T16:34:51;4.03;;;1.97;;
4206;SDS011;2117;47.972;7.830;2023-03-23T16:37:16;2.90;;;2.10;;
4206;SDS011;2117;47.972;7.830;2023-03-23T16:39:42;3.40;;;2.10;;
4206;SDS011;2117;47.972;7.830;2023-03-23T16:42:07;3.13;;;1.97;;
4206;SDS011;2117;47.972;7.830;2023-03-23T16:44:33;4.63;;;2.97;;
4206;SDS011;2117;47.972;7.830;2023-03-23T16:46:59;3.07;;;1.80;;
4206;SDS011;2117;47.972;7.830;2023-03-23T16:49:24;3.87;;;2.80;;
4206;SDS011;2117;47.972;7.830;2023-03-23T16:51:50;3.07;;;2.60;;
4206;SDS011;2117;47.972;7.830;2023-03-23T16:54:15;4.70;;;2.90;;
4206;SDS011;2117;47.972;7.830;2023-03-23T16:56:41;3.77;;;2.43;;
4206;SDS011;2117;47.972;7.830;2023-03-23T16:59:10;3.70;;;2.30;;
4206;SDS011;2117;47.972;7.830;2023-03-23T17:01:36;8.40;;;2.37;;
4206;SDS011;2117;47.972;7.830;2023-03-23T17:04:02;8.27;;;3.80;;
4206;SDS011;2117;47.972;7.830;2023-03-23T17:06:28;10.40;;;2.50;;
4206;SDS011;2117;47.972;7.830;2023-03-23T17:08:54;4.67;;;2.57;;
4206;SDS011;2117;47.972;7.830;2023-03-23T17:11:19;2.80;;;2.00;;